createdAt,value
2018-08-20T00:00:13.184Z,23.60
2018-08-20T00:00:44.790Z,23.60
2018-08-20T00:01:16.398Z,23.60
2018-08-20T00:01:48.010Z,23.62
2018-08-20T00:02:19.614Z,23.61
2018-08-20T00:02:51.261Z,23.62
2018-08-20T00:03:22.865Z,23.64
2018-08-20T00:03:54.456Z,23.61
2018-08-20T00:04:26.053Z,23.45
2018-08-20T00:04:57.657Z,23.55
2018-08-20T00:05:29.254Z,23.53
2018-08-20T00:06:00.834Z,23.56
2018-08-20T00:06:32.438Z,23.58
2018-08-20T00:07:04.043Z,23.58
2018-08-20T00:07:35.642Z,23.60
2018-08-20T00:08:07.282Z,23.60
2018-08-20T00:08:38.881Z,23.61
2018-08-20T00:09:10.472Z,23.64
2018-08-20T00:09:42.074Z,23.63
2018-08-20T00:10:13.678Z,23.61
2018-08-20T00:10:45.307Z,23.65
2018-08-20T00:11:16.906Z,23.63
2018-08-20T00:11:48.502Z,23.63
2018-08-20T00:12:20.092Z,23.58
2018-08-20T00:12:51.698Z,23.58
2018-08-20T00:13:23.337Z,23.53
2018-08-20T00:13:54.938Z,23.48
2018-08-20T00:14:26.530Z,23.46
2018-08-20T00:14:58.106Z,23.43
2018-08-20T00:15:29.710Z,23.41
2018-08-20T00:16:01.358Z,23.39
2018-08-20T00:16:32.935Z,23.37
2018-08-20T00:17:04.540Z,23.40
2018-08-20T00:17:36.129Z,23.43
2018-08-20T00:18:07.719Z,23.42
2018-08-20T00:18:39.322Z,23.44
2018-08-20T00:19:10.919Z,23.44
2018-08-20T00:19:42.553Z,23.42
2018-08-20T00:20:14.162Z,23.44
2018-08-20T00:20:45.752Z,23.45
2018-08-20T00:21:17.356Z,23.45
2018-08-20T00:21:48.962Z,23.46
2018-08-20T00:22:20.559Z,23.43
2018-08-20T00:22:52.152Z,23.44
2018-08-20T00:23:23.754Z,23.50
2018-08-20T00:23:55.349Z,23.54
2018-08-20T00:24:26.993Z,23.58
2018-08-20T00:24:58.584Z,23.57
2018-08-20T00:25:30.175Z,23.54
2018-08-20T00:26:01.826Z,23.52
2018-08-20T00:26:33.407Z,23.53
2018-08-20T00:27:04.995Z,23.52
2018-08-20T00:27:36.588Z,23.51
2018-08-20T00:28:08.176Z,23.49
2018-08-20T00:28:39.778Z,23.49
2018-08-20T00:29:11.382Z,23.52
2018-08-20T00:29:42.977Z,23.56
2018-08-20T00:30:14.575Z,23.57
2018-08-20T00:30:46.182Z,23.60
2018-08-20T00:31:17.824Z,23.56
2018-08-20T00:31:49.431Z,23.54
2018-08-20T00:32:21.024Z,23.53
2018-08-20T00:32:52.634Z,23.55
2018-08-20T00:33:24.229Z,23.52
2018-08-20T00:33:55.833Z,23.54
2018-08-20T00:34:27.424Z,23.54
2018-08-20T00:34:59.017Z,23.56
2018-08-20T00:35:30.602Z,23.58
2018-08-20T00:36:02.259Z,23.56
2018-08-20T00:36:33.823Z,23.57
2018-08-20T00:37:05.397Z,23.58
2018-08-20T00:37:36.988Z,23.56
2018-08-20T00:38:08.624Z,23.57
2018-08-20T00:38:40.226Z,23.59
2018-08-20T00:39:11.806Z,23.60
2018-08-20T00:39:43.396Z,23.62
2018-08-20T00:40:15.025Z,23.67
2018-08-20T00:40:46.616Z,23.68
2018-08-20T00:41:18.214Z,23.69
2018-08-20T00:41:49.818Z,23.67
2018-08-20T00:42:21.422Z,23.64
2018-08-20T00:42:53.023Z,23.61
2018-08-20T00:43:24.658Z,23.58
2018-08-20T00:43:56.295Z,23.58
2018-08-20T00:44:27.897Z,23.56
2018-08-20T00:44:59.478Z,23.50
2018-08-20T00:45:31.082Z,23.48
2018-08-20T00:46:02.664Z,23.46
2018-08-20T00:46:34.240Z,23.45
2018-08-20T00:47:05.830Z,23.45
2018-08-20T00:47:37.434Z,23.44
2018-08-20T00:48:09.042Z,23.44
2018-08-20T00:48:40.636Z,23.44
2018-08-20T00:49:12.261Z,23.41
2018-08-20T00:49:43.901Z,23.41
2018-08-20T00:50:15.487Z,23.40
2018-08-20T00:50:47.151Z,23.39
2018-08-20T00:51:18.740Z,23.37
2018-08-20T00:51:50.327Z,23.35
2018-08-20T00:52:21.902Z,23.34
2018-08-20T00:52:53.497Z,23.34
2018-08-20T00:53:25.103Z,23.34
2018-08-20T00:53:56.707Z,23.33
2018-08-20T00:54:28.365Z,23.31
2018-08-20T00:54:59.974Z,23.30
2018-08-20T00:55:31.559Z,23.30
2018-08-20T00:56:03.152Z,23.33
2018-08-20T00:56:34.744Z,23.35
2018-08-20T00:57:06.346Z,23.36
2018-08-20T00:57:37.949Z,23.36
2018-08-20T00:58:09.540Z,23.35
2018-08-20T00:58:41.144Z,23.36
2018-08-20T00:59:12.746Z,23.38
2018-08-20T00:59:44.372Z,23.41
2018-08-20T01:00:15.959Z,23.48
2018-08-20T01:00:47.563Z,23.52
2018-08-20T01:01:19.178Z,23.57
2018-08-20T01:01:50.808Z,23.59
2018-08-20T01:02:22.426Z,23.57
2018-08-20T01:02:54.029Z,23.53
2018-08-20T01:03:25.608Z,23.53
2018-08-20T01:03:57.206Z,23.56
2018-08-20T01:04:28.836Z,23.51
2018-08-20T01:05:00.434Z,23.47
2018-08-20T01:05:32.031Z,23.45
2018-08-20T01:06:03.620Z,23.46
2018-08-20T01:06:35.208Z,23.47
2018-08-20T01:07:06.796Z,23.48
2018-08-20T01:07:38.397Z,23.47
2018-08-20T01:08:09.991Z,23.48
2018-08-20T01:08:41.590Z,23.48
2018-08-20T01:09:13.234Z,23.51
2018-08-20T01:09:44.825Z,23.53
2018-08-20T01:10:16.416Z,23.52
2018-08-20T01:10:48.012Z,23.52
2018-08-20T01:11:19.613Z,23.53
2018-08-20T01:11:51.214Z,23.55
2018-08-20T01:12:22.794Z,23.57
2018-08-20T01:12:54.370Z,23.58
2018-08-20T01:13:25.970Z,23.60
2018-08-20T01:13:57.569Z,23.56
2018-08-20T01:14:29.214Z,23.52
2018-08-20T01:15:00.805Z,23.50
2018-08-20T01:15:32.383Z,23.51
2018-08-20T01:16:03.968Z,23.50
2018-08-20T01:16:35.571Z,23.48
2018-08-20T01:17:07.166Z,23.49
2018-08-20T01:17:38.894Z,23.50
2018-08-20T01:18:10.483Z,23.50
2018-08-20T01:18:42.086Z,23.48
2018-08-20T01:19:13.686Z,23.46
2018-08-20T01:19:45.274Z,23.44
2018-08-20T01:20:16.867Z,23.38
2018-08-20T01:20:48.452Z,23.36
2018-08-20T01:21:20.073Z,23.33
2018-08-20T01:21:51.730Z,23.32
2018-08-20T01:22:23.320Z,23.32
2018-08-20T01:22:54.912Z,23.29
2018-08-20T01:23:26.511Z,23.27
2018-08-20T01:23:58.097Z,23.26
2018-08-20T01:24:29.688Z,23.31
2018-08-20T01:25:01.278Z,23.35
2018-08-20T01:25:32.854Z,23.38
2018-08-20T01:26:04.441Z,23.37
2018-08-20T01:26:36.047Z,23.39
2018-08-20T01:27:07.676Z,23.39
2018-08-20T01:27:39.614Z,23.40
2018-08-20T01:28:11.218Z,23.39
2018-08-20T01:28:42.812Z,23.38
2018-08-20T01:29:14.444Z,23.37
2018-08-20T01:29:46.051Z,23.35
2018-08-20T01:30:17.677Z,23.36
2018-08-20T01:30:49.254Z,23.36
2018-08-20T01:31:20.830Z,23.34
2018-08-20T01:31:52.411Z,23.34
2018-08-20T01:32:24.014Z,23.31
2018-08-20T01:32:55.643Z,23.29
2018-08-20T01:33:27.246Z,23.32
2018-08-20T01:33:58.870Z,23.36
2018-08-20T01:34:30.460Z,23.40
2018-08-20T01:35:02.053Z,23.46
2018-08-20T01:35:33.645Z,23.48
2018-08-20T01:36:05.330Z,23.51
2018-08-20T01:36:36.935Z,23.49
2018-08-20T01:37:08.528Z,23.48
2018-08-20T01:37:40.102Z,23.47
2018-08-20T01:38:11.699Z,23.45
2018-08-20T01:38:43.288Z,23.42
2018-08-20T01:39:14.895Z,23.40
2018-08-20T01:39:46.498Z,23.40
2018-08-20T01:40:18.088Z,23.37
2018-08-20T01:40:49.689Z,23.38
2018-08-20T01:41:21.320Z,23.41
2018-08-20T01:41:52.908Z,23.39
2018-08-20T01:42:24.511Z,23.38
2018-08-20T01:42:56.118Z,23.36
2018-08-20T01:43:27.726Z,23.37
2018-08-20T01:43:59.330Z,23.37
2018-08-20T01:44:30.982Z,23.40
2018-08-20T01:45:02.590Z,23.44
2018-08-20T01:45:34.180Z,23.45
2018-08-20T01:46:05.776Z,23.45
2018-08-20T01:46:37.413Z,23.47
2018-08-20T01:47:09.002Z,23.47
2018-08-20T01:47:40.578Z,23.42
2018-08-20T01:48:12.172Z,23.40
2018-08-20T01:48:43.760Z,23.38
2018-08-20T01:49:15.338Z,23.39
2018-08-20T01:49:46.928Z,23.37
2018-08-20T01:50:18.525Z,23.38
2018-08-20T01:50:50.106Z,23.38
2018-08-20T01:51:21.696Z,23.36
2018-08-20T01:51:53.314Z,23.39
2018-08-20T01:52:24.912Z,23.40
2018-08-20T01:52:56.499Z,23.42
2018-08-20T01:53:28.092Z,23.47
2018-08-20T01:53:59.694Z,23.49
2018-08-20T01:54:31.283Z,23.54
2018-08-20T01:55:02.873Z,23.54
2018-08-20T01:55:34.467Z,23.53
2018-08-20T01:56:06.056Z,23.48
2018-08-20T01:56:37.658Z,23.45
2018-08-20T01:57:09.297Z,23.47
2018-08-20T01:57:40.892Z,23.49
2018-08-20T01:58:12.480Z,23.49
2018-08-20T01:58:44.068Z,23.48
2018-08-20T01:59:15.669Z,23.50
2018-08-20T01:59:47.336Z,23.52
2018-08-20T02:00:18.928Z,23.56
2018-08-20T02:00:50.516Z,23.55
2018-08-20T02:01:22.094Z,23.54
2018-08-20T02:01:53.705Z,23.54
2018-08-20T02:02:25.332Z,23.54
2018-08-20T02:02:56.934Z,23.55
2018-08-20T02:03:28.528Z,23.51
2018-08-20T02:04:00.129Z,23.46
2018-08-20T02:04:31.726Z,23.43
2018-08-20T02:05:03.320Z,23.43
2018-08-20T02:05:34.912Z,23.41
2018-08-20T02:06:06.504Z,23.41
2018-08-20T02:06:38.099Z,23.39
2018-08-20T02:07:09.698Z,23.40
2018-08-20T02:07:41.327Z,23.37
2018-08-20T02:08:12.919Z,23.33
2018-08-20T02:08:44.552Z,23.31
2018-08-20T02:09:16.140Z,23.28
2018-08-20T02:09:47.732Z,23.23
2018-08-20T02:10:19.319Z,23.16
2018-08-20T02:10:50.921Z,23.08
2018-08-20T02:11:22.541Z,23.07
2018-08-20T02:11:54.136Z,23.02
2018-08-20T02:12:25.739Z,22.99
2018-08-20T02:12:57.332Z,22.99
2018-08-20T02:13:28.934Z,23.03
2018-08-20T02:14:00.586Z,23.07
2018-08-20T02:14:32.194Z,23.08
2018-08-20T02:15:03.784Z,23.06
2018-08-20T02:15:35.362Z,23.03
2018-08-20T02:16:06.953Z,23.03
2018-08-20T02:16:38.529Z,23.06
2018-08-20T02:17:10.114Z,23.08
2018-08-20T02:17:41.722Z,23.11
2018-08-20T02:18:13.326Z,23.10
2018-08-20T02:18:44.915Z,23.18
2018-08-20T02:19:16.563Z,23.19
2018-08-20T02:19:48.154Z,23.20
2018-08-20T02:20:19.758Z,23.14
2018-08-20T02:20:51.353Z,23.09
2018-08-20T02:21:22.958Z,23.07
2018-08-20T02:21:54.567Z,23.07
2018-08-20T02:22:26.161Z,23.12
2018-08-20T02:22:57.742Z,23.11
2018-08-20T02:23:29.390Z,23.18
2018-08-20T02:24:00.980Z,23.17
2018-08-20T02:24:32.571Z,23.16
2018-08-20T02:25:04.156Z,23.16
2018-08-20T02:25:35.744Z,23.17
2018-08-20T02:26:07.345Z,23.12
2018-08-20T02:26:38.950Z,23.12
2018-08-20T02:27:10.562Z,23.12
2018-08-20T02:27:42.173Z,23.16
2018-08-20T02:28:13.778Z,23.18
2018-08-20T02:28:45.402Z,23.20
2018-08-20T02:29:16.982Z,23.23
2018-08-20T02:29:48.578Z,23.21
2018-08-20T02:30:20.174Z,23.16
2018-08-20T02:30:51.772Z,23.19
2018-08-20T02:31:23.419Z,23.22
2018-08-20T02:31:55.008Z,23.23
2018-08-20T02:32:26.610Z,23.29
2018-08-20T02:32:58.205Z,23.29
2018-08-20T02:33:29.851Z,23.26
2018-08-20T02:34:01.434Z,23.21
2018-08-20T02:34:33.014Z,23.19
2018-08-20T02:35:04.604Z,23.14
2018-08-20T02:35:36.235Z,23.13
2018-08-20T02:36:07.855Z,23.09
2018-08-20T02:36:39.458Z,23.04
2018-08-20T02:37:11.095Z,23.04
2018-08-20T02:37:42.688Z,23.04
2018-08-20T02:38:14.388Z,23.03
2018-08-20T02:38:45.961Z,23.04
2018-08-20T02:39:17.566Z,23.06
2018-08-20T02:39:49.196Z,23.07
2018-08-20T02:40:20.786Z,23.07
2018-08-20T02:40:52.415Z,23.06
2018-08-20T02:41:23.999Z,23.05
2018-08-20T02:41:55.587Z,23.05
2018-08-20T02:42:27.246Z,23.03
2018-08-20T02:42:58.850Z,23.07
2018-08-20T02:43:30.471Z,23.04
2018-08-20T02:44:02.063Z,23.06
2018-08-20T02:44:33.670Z,23.07
2018-08-20T02:45:05.264Z,23.09
2018-08-20T02:45:36.847Z,23.13
2018-08-20T02:46:08.454Z,23.14
2018-08-20T02:46:40.048Z,23.16
2018-08-20T02:47:11.653Z,23.17
2018-08-20T02:47:43.295Z,23.19
2018-08-20T02:48:14.892Z,23.17
2018-08-20T02:48:46.486Z,23.13
2018-08-20T02:49:18.080Z,23.10
2018-08-20T02:49:49.669Z,23.10
2018-08-20T02:50:21.256Z,23.05
2018-08-20T02:50:52.888Z,23.07
2018-08-20T02:51:24.490Z,23.06
2018-08-20T02:51:56.079Z,23.09
2018-08-20T02:52:27.686Z,23.11
2018-08-20T02:52:59.268Z,23.13
2018-08-20T02:53:30.906Z,23.11
2018-08-20T02:54:02.509Z,23.11
2018-08-20T02:54:34.113Z,23.14
2018-08-20T02:55:05.712Z,23.08
2018-08-20T02:55:37.314Z,22.97
2018-08-20T02:56:08.944Z,22.90
2018-08-20T02:56:40.522Z,22.83
2018-08-20T02:57:12.125Z,22.78
2018-08-20T02:57:43.711Z,22.76
2018-08-20T02:58:15.304Z,22.75
2018-08-20T02:58:46.896Z,22.73
2018-08-20T02:59:18.488Z,22.75
2018-08-20T02:59:50.066Z,22.72
2018-08-20T03:00:21.652Z,22.76
2018-08-20T03:00:53.280Z,22.82
2018-08-20T03:01:24.881Z,22.91
2018-08-20T03:01:56.486Z,22.95
2018-08-20T03:02:28.090Z,22.98
2018-08-20T03:02:59.677Z,23.03
2018-08-20T03:03:31.353Z,23.07
2018-08-20T03:04:02.927Z,23.06
2018-08-20T03:04:34.542Z,23.07
2018-08-20T03:05:06.138Z,23.09
2018-08-20T03:05:37.751Z,23.07
2018-08-20T03:06:09.335Z,23.09
2018-08-20T03:06:40.965Z,23.10
2018-08-20T03:07:12.566Z,23.11
2018-08-20T03:07:44.174Z,23.09
2018-08-20T03:08:15.773Z,23.08
2018-08-20T03:08:47.415Z,23.05
2018-08-20T03:09:19.021Z,23.04
2018-08-20T03:09:50.670Z,23.04
2018-08-20T03:10:22.264Z,23.05
2018-08-20T03:10:53.852Z,23.12
2018-08-20T03:11:25.454Z,23.21
2018-08-20T03:11:57.062Z,23.23
2018-08-20T03:12:28.673Z,23.26
2018-08-20T03:13:00.323Z,23.33
2018-08-20T03:13:31.916Z,23.35
2018-08-20T03:14:03.494Z,23.37
2018-08-20T03:14:35.080Z,23.37
2018-08-20T03:15:06.668Z,23.38
2018-08-20T03:15:38.261Z,23.40
2018-08-20T03:16:09.855Z,23.45
2018-08-20T03:16:41.451Z,23.48
2018-08-20T03:17:13.040Z,23.52
2018-08-20T03:17:44.622Z,23.57
2018-08-20T03:18:16.271Z,23.59
2018-08-20T03:18:47.874Z,23.64
2018-08-20T03:19:19.482Z,23.64
2018-08-20T03:19:51.086Z,23.66
2018-08-20T03:20:22.686Z,23.68
2018-08-20T03:20:54.290Z,23.68
2018-08-20T03:21:25.880Z,23.68
2018-08-20T03:21:57.459Z,23.69
2018-08-20T03:22:29.061Z,23.70
2018-08-20T03:23:00.652Z,23.74
2018-08-20T03:23:32.279Z,23.70
2018-08-20T03:24:03.872Z,23.69
2018-08-20T03:24:35.463Z,23.70
2018-08-20T03:25:07.052Z,23.73
2018-08-20T03:25:38.659Z,23.72
2018-08-20T03:26:10.292Z,23.71
2018-08-20T03:26:41.894Z,23.69
2018-08-20T03:27:13.483Z,23.65
2018-08-20T03:27:45.088Z,23.65
2018-08-20T03:28:16.676Z,23.65
2018-08-20T03:28:48.304Z,23.64
2018-08-20T03:29:19.915Z,23.64
2018-08-20T03:29:51.522Z,23.64
2018-08-20T03:30:23.116Z,23.68
2018-08-20T03:30:54.731Z,23.70
2018-08-20T03:31:26.320Z,23.72
2018-08-20T03:31:57.922Z,23.74
2018-08-20T03:32:29.521Z,23.74
2018-08-20T03:33:01.123Z,23.73
2018-08-20T03:33:32.703Z,23.76
2018-08-20T03:34:04.340Z,23.78
2018-08-20T03:34:35.942Z,23.81
2018-08-20T03:35:07.551Z,23.86
2018-08-20T03:35:39.149Z,23.90
2018-08-20T03:36:10.736Z,23.92
2018-08-20T03:36:42.368Z,23.92
2018-08-20T03:37:13.950Z,23.91
2018-08-20T03:37:45.542Z,23.94
2018-08-20T03:38:17.151Z,23.94
2018-08-20T03:38:48.776Z,23.95
2018-08-20T03:39:20.382Z,23.95
2018-08-20T03:39:51.988Z,23.90
2018-08-20T03:40:23.592Z,23.87
2018-08-20T03:40:55.209Z,23.85
2018-08-20T03:41:26.799Z,23.80
2018-08-20T03:41:58.444Z,23.78
2018-08-20T03:42:30.037Z,23.76
2018-08-20T03:43:01.618Z,23.74
2018-08-20T03:43:33.207Z,23.70
2018-08-20T03:44:04.782Z,23.67
2018-08-20T03:44:36.385Z,23.67
2018-08-20T03:45:07.990Z,23.68
2018-08-20T03:45:39.593Z,23.69
2018-08-20T03:46:11.199Z,23.69
2018-08-20T03:46:42.802Z,23.67
2018-08-20T03:47:14.440Z,23.65
2018-08-20T03:47:46.072Z,23.65
2018-08-20T03:48:17.674Z,23.64
2018-08-20T03:48:49.254Z,23.64
2018-08-20T03:49:20.935Z,23.63
2018-08-20T03:49:52.543Z,23.63
2018-08-20T03:50:24.136Z,23.63
2018-08-20T03:50:55.739Z,23.64
2018-08-20T03:51:27.327Z,23.65
2018-08-20T03:51:58.920Z,23.67
2018-08-20T03:52:30.498Z,23.66
2018-08-20T03:53:02.098Z,23.67
2018-08-20T03:53:33.679Z,23.67
2018-08-20T03:54:05.283Z,23.68
2018-08-20T03:54:36.921Z,23.65
2018-08-20T03:55:08.523Z,23.67
2018-08-20T03:55:40.108Z,23.67
2018-08-20T03:56:11.713Z,23.67
2018-08-20T03:56:43.308Z,23.65
2018-08-20T03:57:14.914Z,23.65
2018-08-20T03:57:46.572Z,23.67
2018-08-20T03:58:18.150Z,23.69
2018-08-20T03:58:49.740Z,23.69
2018-08-20T03:59:21.373Z,23.71
2018-08-20T03:59:52.964Z,23.74
2018-08-20T04:00:24.540Z,23.75
2018-08-20T04:00:56.147Z,23.77
2018-08-20T04:01:28.058Z,23.79
2018-08-20T04:01:59.652Z,23.78
2018-08-20T04:02:31.252Z,23.79
2018-08-20T04:03:02.858Z,23.81
2018-08-20T04:03:34.469Z,23.80
2018-08-20T04:04:06.068Z,23.79
2018-08-20T04:04:37.720Z,23.83
2018-08-20T04:05:09.448Z,23.85
2018-08-20T04:05:40.992Z,23.86
2018-08-20T04:06:12.570Z,23.85
2018-08-20T04:06:44.186Z,23.88
2018-08-20T04:07:15.805Z,23.88
2018-08-20T04:07:47.410Z,23.89
2018-08-20T04:08:19.024Z,23.90
2018-08-20T04:08:50.682Z,23.91
2018-08-20T04:09:22.273Z,23.87
2018-08-20T04:09:53.874Z,23.82
2018-08-20T04:10:25.464Z,23.80
2018-08-20T04:10:57.186Z,23.78
2018-08-20T04:11:28.770Z,23.77
2018-08-20T04:12:00.354Z,23.75
2018-08-20T04:12:31.954Z,23.73
2018-08-20T04:13:03.598Z,23.74
2018-08-20T04:13:35.178Z,23.73
2018-08-20T04:14:06.816Z,23.73
2018-08-20T04:14:38.429Z,23.74
2018-08-20T04:15:10.024Z,23.74
2018-08-20T04:15:41.631Z,23.73
2018-08-20T04:16:13.216Z,23.71
2018-08-20T04:16:44.812Z,23.70
2018-08-20T04:17:16.404Z,23.67
2018-08-20T04:17:48.012Z,23.67
2018-08-20T04:18:19.626Z,23.67
2018-08-20T04:18:51.207Z,23.66
2018-08-20T04:19:22.798Z,23.65
2018-08-20T04:19:54.436Z,23.65
2018-08-20T04:20:26.024Z,23.65
2018-08-20T04:20:57.602Z,23.65
2018-08-20T04:21:29.189Z,23.64
2018-08-20T04:22:00.780Z,23.63
2018-08-20T04:22:32.375Z,23.62
2018-08-20T04:23:03.965Z,23.60
2018-08-20T04:23:35.563Z,23.61
2018-08-20T04:24:07.170Z,23.61
2018-08-20T04:24:38.750Z,23.60
2018-08-20T04:25:10.402Z,23.61
2018-08-20T04:25:41.999Z,23.58
2018-08-20T04:26:13.597Z,23.59
2018-08-20T04:26:45.252Z,23.59
2018-08-20T04:27:16.866Z,23.58
2018-08-20T04:27:48.452Z,23.60
2018-08-20T04:28:20.045Z,23.59
2018-08-20T04:28:51.624Z,23.60
2018-08-20T04:29:23.212Z,23.62
2018-08-20T04:29:54.800Z,23.67
2018-08-20T04:30:26.454Z,23.72
2018-08-20T04:30:58.028Z,23.75
2018-08-20T04:31:29.638Z,23.78
2018-08-20T04:32:01.237Z,23.87
2018-08-20T04:32:33.132Z,23.84
2018-08-20T04:33:04.785Z,23.83
2018-08-20T04:33:36.399Z,23.72
2018-08-20T04:34:08.015Z,23.67
2018-08-20T04:34:39.609Z,23.67
2018-08-20T04:35:11.210Z,23.61
2018-08-20T04:35:42.862Z,23.67
2018-08-20T04:36:14.452Z,23.70
2018-08-20T04:36:46.043Z,23.72
2018-08-20T04:37:17.633Z,23.74
2018-08-20T04:37:49.224Z,23.76
2018-08-20T04:38:20.820Z,23.77
2018-08-20T04:38:52.474Z,23.77
2018-08-20T04:39:24.087Z,23.76
2018-08-20T04:39:55.690Z,23.78
2018-08-20T04:40:27.510Z,23.78
2018-08-20T04:40:59.110Z,23.78
2018-08-20T04:41:30.690Z,23.78
2018-08-20T04:42:02.317Z,23.79
2018-08-20T04:42:33.900Z,23.77
2018-08-20T04:43:05.510Z,23.81
2018-08-20T04:43:37.100Z,23.90
2018-08-20T04:44:08.750Z,23.97
2018-08-20T04:44:40.353Z,24.03
2018-08-20T04:45:11.944Z,24.05
2018-08-20T04:45:43.541Z,24.04
2018-08-20T04:46:15.147Z,24.05
2018-08-20T04:46:46.735Z,24.05
2018-08-20T04:47:18.333Z,24.03
2018-08-20T04:47:49.930Z,24.04
2018-08-20T04:48:21.511Z,24.00
2018-08-20T04:48:53.104Z,24.04
2018-08-20T04:49:24.698Z,24.03
2018-08-20T04:49:56.373Z,24.03
2018-08-20T04:50:28.094Z,24.00
2018-08-20T04:50:59.698Z,23.95
2018-08-20T04:51:31.295Z,23.88
2018-08-20T04:52:02.776Z,23.83
2018-08-20T04:52:34.382Z,23.79
2018-08-20T04:53:05.977Z,23.75
2018-08-20T04:53:37.875Z,23.71
2018-08-20T04:54:09.791Z,23.67
2018-08-20T04:54:41.387Z,23.68
2018-08-20T04:55:12.975Z,23.67
2018-08-20T04:55:44.553Z,23.64
2018-08-20T04:56:16.154Z,23.60
2018-08-20T04:56:47.748Z,23.58
2018-08-20T04:57:19.340Z,23.64
2018-08-20T04:57:50.933Z,23.73
2018-08-20T04:58:22.538Z,23.83
2018-08-20T04:58:54.118Z,23.92
2018-08-20T04:59:25.723Z,24.00
2018-08-20T04:59:57.327Z,24.07
2018-08-20T05:00:28.977Z,24.12
2018-08-20T05:01:00.568Z,24.15
2018-08-20T05:01:32.151Z,24.19
2018-08-20T05:02:03.740Z,24.14
2018-08-20T05:02:35.387Z,24.02
2018-08-20T05:03:06.990Z,24.00
2018-08-20T05:03:38.570Z,23.94
2018-08-20T05:04:10.167Z,23.90
2018-08-20T05:04:41.761Z,23.83
2018-08-20T05:05:13.362Z,23.77
2018-08-20T05:05:44.990Z,23.66
2018-08-20T05:06:16.570Z,23.62
2018-08-20T05:06:48.183Z,23.60
2018-08-20T05:07:19.793Z,23.57
2018-08-20T05:07:51.393Z,23.58
2018-08-20T05:08:22.984Z,23.55
2018-08-20T05:08:54.567Z,23.54
2018-08-20T05:09:26.156Z,23.53
2018-08-20T05:09:57.809Z,23.51
2018-08-20T05:10:29.368Z,23.49
2018-08-20T05:11:00.958Z,23.50
2018-08-20T05:11:32.595Z,23.49
2018-08-20T05:12:04.228Z,23.49
2018-08-20T05:12:35.871Z,23.49
2018-08-20T05:13:07.484Z,23.48
2018-08-20T05:13:39.110Z,23.47
2018-08-20T05:14:10.718Z,23.46
2018-08-20T05:14:42.312Z,23.46
2018-08-20T05:15:13.914Z,23.44
2018-08-20T05:15:45.495Z,23.27
2018-08-20T05:16:17.075Z,23.46
2018-08-20T05:16:48.723Z,23.45
2018-08-20T05:17:20.318Z,23.44
2018-08-20T05:17:51.909Z,23.47
2018-08-20T05:18:23.503Z,23.44
2018-08-20T05:18:55.138Z,23.47
2018-08-20T05:19:26.748Z,23.47
2018-08-20T05:19:58.365Z,23.46
2018-08-20T05:20:30.004Z,23.45
2018-08-20T05:21:01.587Z,23.44
2018-08-20T05:21:33.178Z,23.43
2018-08-20T05:22:04.776Z,23.43
2018-08-20T05:22:36.364Z,23.43
2018-08-20T05:23:07.942Z,23.42
2018-08-20T05:23:39.528Z,23.41
2018-08-20T05:24:11.120Z,23.41
2018-08-20T05:24:42.775Z,23.41
2018-08-20T05:25:14.378Z,23.42
2018-08-20T05:25:45.968Z,23.43
2018-08-20T05:26:17.559Z,23.44
2018-08-20T05:26:49.181Z,23.44
2018-08-20T05:27:20.773Z,23.43
2018-08-20T05:27:52.364Z,23.45
2018-08-20T05:28:23.965Z,23.46
2018-08-20T05:28:55.621Z,23.47
2018-08-20T05:29:27.362Z,23.47
2018-08-20T05:29:58.852Z,23.46
2018-08-20T05:30:30.485Z,23.46
2018-08-20T05:31:02.076Z,23.43
2018-08-20T05:31:33.654Z,23.45
2018-08-20T05:32:05.265Z,23.44
2018-08-20T05:32:36.899Z,23.43
2018-08-20T05:33:08.483Z,23.43
2018-08-20T05:33:40.143Z,23.43
2018-08-20T05:34:11.740Z,23.42
2018-08-20T05:34:43.350Z,23.42
2018-08-20T05:35:14.954Z,23.42
2018-08-20T05:35:46.554Z,23.42
2018-08-20T05:36:18.182Z,23.41
2018-08-20T05:36:49.772Z,23.42
2018-08-20T05:37:21.365Z,23.41
2018-08-20T05:37:52.959Z,23.42
2018-08-20T05:38:24.542Z,23.43
2018-08-20T05:38:56.137Z,23.44
2018-08-20T05:39:27.775Z,23.43
2018-08-20T05:39:59.364Z,23.43
2018-08-20T05:40:30.946Z,23.43
2018-08-20T05:41:02.531Z,23.44
2018-08-20T05:41:34.138Z,23.44
2018-08-20T05:42:05.718Z,23.44
2018-08-20T05:42:37.307Z,23.45
2018-08-20T05:43:08.914Z,23.45
2018-08-20T05:43:40.526Z,23.45
2018-08-20T05:44:12.116Z,23.44
2018-08-20T05:44:43.805Z,23.43
2018-08-20T05:45:15.390Z,23.42
2018-08-20T05:45:46.970Z,23.43
2018-08-20T05:46:18.577Z,23.43
2018-08-20T05:46:50.173Z,23.43
2018-08-20T05:47:21.763Z,23.44
2018-08-20T05:47:53.352Z,23.44
2018-08-20T05:48:24.958Z,23.44
2018-08-20T05:48:56.566Z,23.44
2018-08-20T05:49:28.160Z,23.43
2018-08-20T05:49:59.810Z,23.42
2018-08-20T05:50:31.409Z,23.43
2018-08-20T05:51:03.001Z,23.42
2018-08-20T05:51:34.596Z,23.42
2018-08-20T05:52:06.207Z,23.42
2018-08-20T05:52:37.851Z,23.41
2018-08-20T05:53:09.440Z,23.42
2018-08-20T05:53:41.039Z,23.42
2018-08-20T05:54:12.624Z,23.43
2018-08-20T05:54:44.234Z,23.41
2018-08-20T05:55:15.872Z,23.42
2018-08-20T05:55:47.491Z,23.42
2018-08-20T05:56:19.097Z,23.42
2018-08-20T05:56:50.691Z,23.41
2018-08-20T05:57:22.286Z,23.40
2018-08-20T05:57:53.931Z,23.43
2018-08-20T05:58:25.530Z,23.43
2018-08-20T05:58:57.137Z,23.44
2018-08-20T05:59:28.743Z,23.42
2018-08-20T06:00:00.323Z,23.43
2018-08-20T06:00:31.920Z,23.44
2018-08-20T06:01:03.507Z,23.44
2018-08-20T06:01:35.116Z,23.44
2018-08-20T06:02:06.713Z,23.44
2018-08-20T06:02:38.319Z,23.44
2018-08-20T06:03:09.954Z,23.43
2018-08-20T06:03:41.548Z,23.43
2018-08-20T06:04:13.151Z,23.44
2018-08-20T06:04:44.744Z,23.44
2018-08-20T06:05:16.353Z,23.44
2018-08-20T06:05:47.944Z,23.46
2018-08-20T06:06:19.551Z,23.46
2018-08-20T06:06:51.184Z,23.47
2018-08-20T06:07:22.780Z,23.48
2018-08-20T06:07:54.425Z,23.48
2018-08-20T06:08:26.032Z,23.51
2018-08-20T06:08:57.642Z,23.49
2018-08-20T06:09:29.232Z,23.50
2018-08-20T06:10:00.816Z,23.51
2018-08-20T06:10:32.412Z,23.51
2018-08-20T06:11:04.000Z,23.51
2018-08-20T06:11:35.588Z,23.52
2018-08-20T06:12:07.195Z,23.44
2018-08-20T06:12:38.792Z,23.49
2018-08-20T06:13:10.379Z,23.52
2018-08-20T06:13:41.977Z,23.50
2018-08-20T06:14:13.574Z,23.50
2018-08-20T06:14:45.168Z,23.51
2018-08-20T06:15:16.783Z,23.52
2018-08-20T06:15:48.400Z,23.52
2018-08-20T06:16:20.046Z,23.51
2018-08-20T06:16:51.711Z,23.52
2018-08-20T06:17:23.318Z,23.53
2018-08-20T06:17:54.909Z,23.53
2018-08-20T06:18:26.518Z,23.53
2018-08-20T06:18:58.122Z,23.55
2018-08-20T06:19:29.717Z,23.55
2018-08-20T06:20:01.306Z,23.25
2018-08-20T06:20:32.904Z,23.53
2018-08-20T06:21:04.510Z,23.54
2018-08-20T06:21:36.104Z,23.54
2018-08-20T06:22:07.739Z,23.53
2018-08-20T06:22:39.386Z,23.52
2018-08-20T06:23:10.982Z,23.53
2018-08-20T06:23:42.586Z,23.54
2018-08-20T06:24:14.190Z,23.56
2018-08-20T06:24:45.770Z,23.57
2018-08-20T06:25:17.360Z,23.61
2018-08-20T06:25:48.950Z,23.65
2018-08-20T06:26:20.557Z,23.64
2018-08-20T06:26:52.178Z,23.65
2018-08-20T06:27:23.808Z,23.65
2018-08-20T06:27:55.410Z,23.64
2018-08-20T06:28:26.992Z,23.59
2018-08-20T06:28:58.571Z,23.58
2018-08-20T06:29:30.200Z,23.59
2018-08-20T06:30:01.796Z,23.59
2018-08-20T06:30:33.415Z,23.59
2018-08-20T06:31:05.013Z,23.64
2018-08-20T06:31:36.606Z,23.72
2018-08-20T06:32:08.218Z,23.79
2018-08-20T06:32:39.822Z,23.86
2018-08-20T06:33:11.414Z,23.91
2018-08-20T06:33:43.018Z,23.97
2018-08-20T06:34:14.645Z,24.02
2018-08-20T06:34:46.250Z,24.05
2018-08-20T06:35:17.831Z,24.08
2018-08-20T06:35:49.498Z,24.11
2018-08-20T06:36:21.057Z,24.15
2018-08-20T06:36:52.650Z,24.18
2018-08-20T06:37:24.227Z,24.25
2018-08-20T06:37:55.821Z,24.32
2018-08-20T06:38:27.416Z,24.40
2018-08-20T06:38:59.156Z,24.45
2018-08-20T06:39:30.742Z,24.45
2018-08-20T06:40:02.332Z,24.39
2018-08-20T06:40:33.920Z,24.33
2018-08-20T06:41:05.528Z,24.28
2018-08-20T06:41:37.160Z,24.22
2018-08-20T06:42:08.744Z,24.16
2018-08-20T06:42:40.335Z,24.11
2018-08-20T06:43:11.922Z,24.08
2018-08-20T06:43:43.516Z,24.05
2018-08-20T06:44:15.152Z,24.04
2018-08-20T06:44:46.744Z,24.00
2018-08-20T06:45:18.332Z,23.97
2018-08-20T06:45:49.920Z,23.96
2018-08-20T06:46:21.516Z,23.95
2018-08-20T06:46:53.104Z,23.96